Time;durP1;ratioP1;P1;durP2;ratioP2;P2;SDS_P1;SDS_P2;PMS_P1;PMS_P2;Temp;Humidity;BMP_temperature;BMP_pressure;BME280_temperature;BME280_humidity;BME280_pressure;Samples;Min_cycle;Max_cycle;Signal;HPM_P1;HPM_P2
2023/12/29 00:04:55;;;;;;;;;;;;;;;;;;;;;
2023/12/29 00:07:25;;;;;;;4.57;0.97;;;;;;;;;;5079770;28;20020;-79
2023/12/29 00:09:51;;;;;;;5.67;1.00;;;;;;;;;;5074596;28;20020;-78
2023/12/29 00:12:25;;;;;;;5.37;1.27;;;;;;;;;;5078199;28;20006;-79
2023/12/29 00:15:00;;;;;;;3.83;0.80;;;;;;;;;;5094864;28;20028;-78
2023/12/29 00:17:34;;;;;;;5.50;0.90;;;;;;;;;;5086508;28;20031;-78
2023/12/29 00:20:25;;;;;;;4.27;0.90;;;;;;;;;;5067149;28;20087;-77
2023/12/29 00:23:00;;;;;;;3.90;0.67;;;;;;;;;;5085009;28;20044;-78
2023/12/29 00:25:28;;;;;;;8.03;1.03;;;;;;;;;;5083336;28;20044;-78
2023/12/29 00:28:13;;;;;;;3.93;1.00;;;;;;;;;;5069305;28;20016;-78
2023/12/29 00:30:49;;;;;;;2.63;0.80;;;;;;;;;;5079963;28;20033;-79
2023/12/29 00:33:18;;;;;;;4.10;1.17;;;;;;;;;;5081140;28;20032;-78
2023/12/29 00:35:55;;;;;;;5.20;1.10;;;;;;;;;;5086219;28;20028;-79
2023/12/29 00:38:28;;;;;;;1.93;0.73;;;;;;;;;;5073029;28;20036;-79
2023/12/29 00:40:54;;;;;;;6.10;0.90;;;;;;;;;;5085025;28;20020;-79
2023/12/29 00:46:37;;;;;;;4.77;1.27;;;;;;;;;;5067152;28;20077;-77
2023/12/29 00:49:08;;;;;;;7.73;1.60;;;;;;;;;;5065696;28;20021;-77
2023/12/29 00:51:41;;;;;;;5.33;1.33;;;;;;;;;;5070361;28;20470;-78
2023/12/29 00:54:10;;;;;;;9.97;1.20;;;;;;;;;;5071654;28;20023;-79
2023/12/29 00:56:47;;;;;;;9.00;1.23;;;;;;;;;;5086587;28;20048;-78
2023/12/29 00:59:16;;;;;;;3.83;0.93;;;;;;;;;;5079647;28;20029;-79
2023/12/29 01:01:49;;;;;;;5.30;1.00;;;;;;;;;;5077071;28;20036;-78
2023/12/29 01:07:25;;;;;;;9.47;1.13;;;;;;;;;;5074940;28;20021;-79
2023/12/29 01:10:00;;;;;;;5.50;1.10;;;;;;;;;;5076951;28;20037;-79
2023/12/29 01:12:29;;;;;;;5.13;1.03;;;;;;;;;;5077164;28;20025;-78
2023/12/29 01:14:55;;;;;;;9.03;1.60;;;;;;;;;;5090235;28;20017;-78
2023/12/29 01:17:22;;;;;;;4.90;0.87;;;;;;;;;;5076509;28;20064;-79
2023/12/29 01:19:48;;;;;;;5.87;1.00;;;;;;;;;;5077232;28;20071;-78
2023/12/29 01:22:17;;;;;;;3.57;1.07;;;;;;;;;;5077392;28;20027;-79
2023/12/29 01:24:43;;;;;;;5.60;1.57;;;;;;;;;;5078116;28;20032;-78
2023/12/29 01:27:09;;;;;;;9.17;1.37;;;;;;;;;;5077497;28;20035;-78
2023/12/29 01:29:38;;;;;;;4.23;0.93;;;;;;;;;;5072701;28;20028;-77
2023/12/29 01:32:08;;;;;;;5.67;1.00;;;;;;;;;;5073863;28;20035;-78
2023/12/29 01:34:36;;;;;;;3.43;1.33;;;;;;;;;;5076828;28;20028;-78
2023/12/29 01:37:03;;;;;;;7.80;1.83;;;;;;;;;;5079092;28;20027;-78
2023/12/29 01:39:30;;;;;;;6.00;1.47;;;;;;;;;;5073031;28;20037;-78
2023/12/29 01:41:56;;;;;;;6.63;1.53;;;;;;;;;;5075266;28;20035;-77
2023/12/29 01:44:25;;;;;;;9.90;1.50;;;;;;;;;;5076106;28;20029;-78
2023/12/29 01:46:52;;;;;;;4.70;1.40;;;;;;;;;;5073805;28;20032;-78
2023/12/29 01:49:18;;;;;;;5.50;1.33;;;;;;;;;;5078240;28;20020;-78
2023/12/29 01:51:45;;;;;;;3.27;1.10;;;;;;;;;;5076930;28;20061;-78
2023/12/29 01:54:15;;;;;;;5.93;1.20;;;;;;;;;;5091213;28;20033;-77
2023/12/29 01:56:49;;;;;;;5.77;1.10;;;;;;;;;;5078335;28;20024;-78
2023/12/29 01:59:15;;;;;;;5.20;1.43;;;;;;;;;;5092282;28;20120;-78
2023/12/29 02:01:42;;;;;;;3.90;1.20;;;;;;;;;;5072340;28;20028;-78
2023/12/29 02:04:08;;;;;;;5.30;1.10;;;;;;;;;;5084250;28;20020;-78
2023/12/29 02:06:35;;;;;;;9.50;1.33;;;;;;;;;;5076177;28;20088;-78
2023/12/29 02:09:05;;;;;;;4.67;1.17;;;;;;;;;;5090823;28;20302;-78
2023/12/29 02:11:33;;;;;;;6.40;1.37;;;;;;;;;;5073929;28;20021;-77
2023/12/29 02:14:00;;;;;;;4.67;1.10;;;;;;;;;;5111134;22;20100;-78
2023/12/29 02:16:38;;;;;;;6.87;1.03;;;;;;;;;;5075742;28;20036;-78
2023/12/29 02:19:08;;;;;;;10.97;1.53;;;;;;;;;;5070667;28;20037;-78
2023/12/29 02:21:36;;;;;;;6.73;0.87;;;;;;;;;;5075014;28;20025;-78
2023/12/29 02:24:03;;;;;;;7.07;1.77;;;;;;;;;;5093329;28;20029;-77
2023/12/29 02:26:30;;;;;;;6.93;1.60;;;;;;;;;;5070243;28;20037;-78
2023/12/29 02:29:00;;;;;;;12.23;1.83;;;;;;;;;;5074282;28;20043;-78
2023/12/29 02:31:28;;;;;;;5.03;1.23;;;;;;;;;;5093058;28;20028;-78
2023/12/29 02:33:56;;;;;;;5.47;1.30;;;;;;;;;;5075387;28;20097;-78
2023/12/29 02:36:25;;;;;;;5.57;1.27;;;;;;;;;;5075413;28;20016;-78
2023/12/29 02:38:51;;;;;;;9.37;1.63;;;;;;;;;;5078476;28;20049;-77
2023/12/29 02:41:18;;;;;;;5.20;1.80;;;;;;;;;;5075003;28;20019;-78
2023/12/29 02:43:44;;;;;;;7.23;1.53;;;;;;;;;;5076344;28;20021;-78
2023/12/29 02:46:10;;;;;;;4.93;1.20;;;;;;;;;;5078867;28;20055;-78
2023/12/29 02:48:36;;;;;;;8.43;1.43;;;;;;;;;;5076865;28;20021;-78
2023/12/29 02:51:04;;;;;;;5.10;1.37;;;;;;;;;;5072955;28;20251;-78
2023/12/29 02:53:30;;;;;;;10.67;1.20;;;;;;;;;;5078570;28;20016;-78
2023/12/29 02:55:56;;;;;;;5.30;1.40;;;;;;;;;;5093777;28;20032;-78
2023/12/29 02:58:30;;;;;;;9.17;1.40;;;;;;;;;;5077626;28;20031;-78
2023/12/29 03:00:56;;;;;;;10.90;1.23;;;;;;;;;;5095034;28;20076;-77
2023/12/29 03:03:24;;;;;;;10.67;1.43;;;;;;;;;;5077566;28;20021;-78
2023/12/29 03:05:51;;;;;;;7.80;1.30;;;;;;;;;;5072912;28;20095;-78
2023/12/29 03:08:24;;;;;;;7.47;1.40;;;;;;;;;;5078632;28;20020;-78
2023/12/29 03:10:50;;;;;;;10.90;1.77;;;;;;;;;;5077730;28;20224;-78
2023/12/29 03:13:16;;;;;;;9.70;1.50;;;;;;;;;;5090085;28;20029;-78
2023/12/29 03:15:42;;;;;;;7.23;1.10;;;;;;;;;;5130118;23;20037;-78
2023/12/29 03:18:08;;;;;;;5.53;1.20;;;;;;;;;;5089541;28;20034;-78
2023/12/29 03:20:37;;;;;;;4.40;1.00;;;;;;;;;;5202724;22;20033;-78
2023/12/29 03:23:04;;;;;;;8.40;1.93;;;;;;;;;;5071386;28;20024;-78
2023/12/29 03:25:34;;;;;;;6.17;1.13;;;;;;;;;;5070135;28;20055;-78
2023/12/29 03:28:00;;;;;;;16.40;1.60;;;;;;;;;;5068937;28;20017;-78
2023/12/29 03:30:26;;;;;;;7.23;1.00;;;;;;;;;;5069064;28;20048;-78
2023/12/29 03:33:03;;;;;;;4.80;1.07;;;;;;;;;;5086768;28;20033;-78
2023/12/29 03:35:36;;;;;;;7.77;1.37;;;;;;;;;;5086729;28;20044;-78
2023/12/29 03:38:02;;;;;;;9.37;1.60;;;;;;;;;;5068655;28;20037;-78
2023/12/29 03:40:32;;;;;;;8.80;1.30;;;;;;;;;;5068299;28;20055;-78
2023/12/29 03:42:58;;;;;;;10.00;1.10;;;;;;;;;;5086307;28;20028;-78
2023/12/29 03:45:40;;;;;;;8.07;0.90;;;;;;;;;;5071148;28;20064;-78
2023/12/29 03:48:09;;;;;;;5.23;0.87;;;;;;;;;;5068943;28;20037;-78
2023/12/29 03:50:35;;;;;;;5.57;1.23;;;;;;;;;;5067096;28;20018;-79
2023/12/29 03:53:03;;;;;;;3.57;1.00;;;;;;;;;;5087808;28;20039;-78
2023/12/29 03:55:37;;;;;;;5.60;0.93;;;;;;;;;;5069578;28;20036;-78
2023/12/29 03:58:08;;;;;;;6.53;0.90;;;;;;;;;;5072897;28;20029;-78
2023/12/29 04:00:34;;;;;;;6.87;0.90;;;;;;;;;;5086935;28;20055;-78
2023/12/29 04:03:00;;;;;;;6.97;1.50;;;;;;;;;;5067740;28;20013;-77
2023/12/29 04:05:32;;;;;;;9.20;1.50;;;;;;;;;;5067713;28;20041;-78
2023/12/29 04:08:01;;;;;;;4.30;0.70;;;;;;;;;;5086539;28;20036;-78
2023/12/29 04:10:30;;;;;;;10.40;1.40;;;;;;;;;;5070643;28;20085;-78
2023/12/29 04:12:56;;;;;;;4.27;1.07;;;;;;;;;;5069375;28;20025;-79
2023/12/29 04:15:24;;;;;;;2.77;0.83;;;;;;;;;;5073798;28;20037;-79
2023/12/29 04:17:55;;;;;;;6.73;1.13;;;;;;;;;;5068206;28;20006;-78
2023/12/29 04:20:21;;;;;;;7.10;1.43;;;;;;;;;;5067731;28;20040;-78
2023/12/29 04:22:47;;;;;;;10.30;2.10;;;;;;;;;;5067201;28;20036;-78
2023/12/29 04:25:20;;;;;;;7.60;0.80;;;;;;;;;;5072529;28;20017;-78
2023/12/29 04:27:46;;;;;;;11.17;1.43;;;;;;;;;;5070313;28;20044;-78
2023/12/29 04:30:12;;;;;;;8.27;1.53;;;;;;;;;;5071685;28;20013;-78
2023/12/29 04:32:38;;;;;;;6.97;1.07;;;;;;;;;;5068908;28;20056;-78
2023/12/29 04:35:12;;;;;;;8.70;1.23;;;;;;;;;;5067617;28;20005;-78
2023/12/29 04:37:38;;;;;;;5.73;1.23;;;;;;;;;;5071050;28;20009;-77
2023/12/29 04:40:06;;;;;;;6.90;1.37;;;;;;;;;;5072219;28;20068;-78
2023/12/29 04:42:37;;;;;;;8.57;1.30;;;;;;;;;;5090024;28;20013;-78
2023/12/29 04:45:03;;;;;;;8.33;1.30;;;;;;;;;;5082283;28;20018;-78
2023/12/29 04:47:29;;;;;;;4.63;0.97;;;;;;;;;;5059272;28;20005;-78
2023/12/29 04:49:55;;;;;;;13.27;2.20;;;;;;;;;;5084295;28;20017;-78
2023/12/29 04:52:24;;;;;;;7.67;0.83;;;;;;;;;;5084248;28;20036;-78
2023/12/29 04:54:56;;;;;;;10.17;1.10;;;;;;;;;;5078019;28;20042;-78
2023/12/29 04:57:22;;;;;;;9.93;1.40;;;;;;;;;;5077989;28;20116;-78
2023/12/29 04:59:48;;;;;;;13.87;1.07;;;;;;;;;;5076899;28;20028;-78
2023/12/29 05:02:19;;;;;;;5.43;0.97;;;;;;;;;;5078520;28;20020;-78
2023/12/29 05:04:45;;;;;;;7.10;1.10;;;;;;;;;;5072248;28;20009;-79
2023/12/29 05:07:12;;;;;;;9.90;1.47;;;;;;;;;;5078764;28;20021;-78
2023/12/29 05:09:38;;;;;;;7.63;1.23;;;;;;;;;;5082313;28;20027;-78
2023/12/29 05:12:04;;;;;;;9.63;1.77;;;;;;;;;;5077690;28;20016;-78
2023/12/29 05:14:30;;;;;;;9.80;1.27;;;;;;;;;;5083466;28;20080;-78
2023/12/29 05:16:59;;;;;;;11.20;1.77;;;;;;;;;;5094589;28;20023;-78
2023/12/29 05:19:25;;;;;;;9.80;1.30;;;;;;;;;;5097818;28;20051;-78
2023/12/29 05:21:53;;;;;;;8.63;1.27;;;;;;;;;;5092358;28;20009;-78
2023/12/29 05:24:19;;;;;;;12.50;1.20;;;;;;;;;;5094206;28;20017;-78
2023/12/29 05:26:54;;;;;;;10.07;1.47;;;;;;;;;;5078029;28;20024;-78
2023/12/29 05:29:23;;;;;;;10.67;1.17;;;;;;;;;;5078053;28;20116;-78
2023/12/29 05:31:51;;;;;;;10.23;1.00;;;;;;;;;;5077192;28;20048;-78
2023/12/29 05:34:17;;;;;;;9.73;1.97;;;;;;;;;;5065624;28;20019;-78
2023/12/29 05:36:45;;;;;;;8.17;1.47;;;;;;;;;;5077362;28;20016;-78
2023/12/29 05:39:11;;;;;;;8.73;1.40;;;;;;;;;;5098881;28;20037;-78
2023/12/29 05:41:38;;;;;;;9.83;1.60;;;;;;;;;;5100038;28;20028;-78
2023/12/29 05:44:04;;;;;;;10.77;1.20;;;;;;;;;;5112358;23;20037;-78
2023/12/29 05:46:38;;;;;;;8.20;2.07;;;;;;;;;;5114143;28;20008;-78
2023/12/29 05:49:16;;;;;;;8.77;1.90;;;;;;;;;;5108623;28;20038;-78
2023/12/29 05:51:45;;;;;;;5.40;1.50;;;;;;;;;;5106467;28;20000;-78
2023/12/29 05:54:13;;;;;;;6.43;1.10;;;;;;;;;;5099497;28;20000;-78
2023/12/29 05:56:39;;;;;;;7.43;0.97;;;;;;;;;;5099603;28;20005;-78
2023/12/29 05:59:07;;;;;;;6.00;1.27;;;;;;;;;;5103017;28;20012;-79
2023/12/29 06:01:33;;;;;;;6.93;1.03;;;;;;;;;;5093250;28;20015;-78
2023/12/29 06:03:59;;;;;;;4.77;1.17;;;;;;;;;;5109692;28;20004;-78
2023/12/29 06:06:30;;;;;;;5.83;1.13;;;;;;;;;;5119419;28;20008;-78
2023/12/29 06:08:56;;;;;;;11.30;1.80;;;;;;;;;;5101753;28;20001;-78
2023/12/29 06:11:25;;;;;;;6.53;1.40;;;;;;;;;;5112406;28;20004;-78
2023/12/29 06:13:51;;;;;;;3.83;0.70;;;;;;;;;;5106878;28;20000;-78
2023/12/29 06:16:20;;;;;;;5.87;1.13;;;;;;;;;;5125870;28;20007;-78
2023/12/29 06:18:47;;;;;;;12.07;1.33;;;;;;;;;;5101708;28;20032;-78
2023/12/29 06:21:13;;;;;;;4.77;1.53;;;;;;;;;;5096413;28;20186;-78
2023/12/29 06:23:39;;;;;;;6.33;1.20;;;;;;;;;;5097975;28;20008;-78
2023/12/29 06:26:17;;;;;;;6.30;1.40;;;;;;;;;;5114301;28;20068;-78
2023/12/29 06:28:44;;;;;;;4.27;0.70;;;;;;;;;;5095693;28;20016;-78
2023/12/29 06:31:10;;;;;;;7.07;1.43;;;;;;;;;;5098579;28;20087;-78
2023/12/29 06:33:36;;;;;;;9.40;1.00;;;;;;;;;;5094460;28;20020;-78
2023/12/29 06:36:02;;;;;;;4.07;1.10;;;;;;;;;;5094924;28;20024;-78
2023/12/29 06:38:28;;;;;;;7.90;1.17;;;;;;;;;;5096462;28;20036;-78
2023/12/29 06:40:57;;;;;;;6.23;1.27;;;;;;;;;;5097740;28;20028;-78
2023/12/29 06:43:26;;;;;;;6.00;0.80;;;;;;;;;;5097943;28;20048;-78
2023/12/29 06:45:52;;;;;;;2.77;0.60;;;;;;;;;;5163329;22;20044;-79
2023/12/29 06:48:23;;;;;;;7.10;1.30;;;;;;;;;;5098839;28;20008;-78
2023/12/29 06:50:52;;;;;;;4.97;1.47;;;;;;;;;;5110596;28;20032;-78
2023/12/29 06:53:18;;;;;;;5.73;1.23;;;;;;;;;;5096212;28;20008;-78
2023/12/29 06:55:44;;;;;;;10.73;1.07;;;;;;;;;;5094850;28;20012;-78
2023/12/29 06:58:13;;;;;;;7.20;0.80;;;;;;;;;;5094482;28;20138;-78
2023/12/29 07:00:39;;;;;;;6.10;1.03;;;;;;;;;;5097599;28;20487;-78
2023/12/29 07:03:05;;;;;;;9.07;0.80;;;;;;;;;;5094616;28;20020;-77
2023/12/29 07:05:34;;;;;;;4.80;1.03;;;;;;;;;;5099539;28;20012;-78
2023/12/29 07:08:00;;;;;;;7.17;1.00;;;;;;;;;;5098280;28;20027;-78
2023/12/29 07:10:26;;;;;;;2.87;0.70;;;;;;;;;;5113492;28;20036;-78
2023/12/29 07:12:54;;;;;;;6.97;1.30;;;;;;;;;;5098851;28;20028;-78
2023/12/29 07:15:22;;;;;;;5.20;0.73;;;;;;;;;;5111973;28;20027;-78
2023/12/29 07:17:48;;;;;;;3.60;1.10;;;;;;;;;;5095123;28;20021;-78
2023/12/29 07:20:14;;;;;;;3.63;0.50;;;;;;;;;;5111330;28;20020;-78
2023/12/29 07:22:40;;;;;;;8.83;1.23;;;;;;;;;;5112782;27;20020;-78
2023/12/29 07:25:06;;;;;;;3.87;1.20;;;;;;;;;;5109127;28;20036;-78
2023/12/29 07:27:35;;;;;;;4.67;0.80;;;;;;;;;;5097809;28;20009;-78
2023/12/29 07:30:01;;;;;;;5.33;0.90;;;;;;;;;;5094141;28;20244;-78
2023/12/29 07:32:30;;;;;;;4.47;1.13;;;;;;;;;;5110904;28;20032;-78
2023/12/29 07:34:57;;;;;;;3.57;0.90;;;;;;;;;;5096577;28;20012;-78
2023/12/29 07:37:23;;;;;;;4.87;0.87;;;;;;;;;;5110530;28;20020;-78
2023/12/29 07:39:51;;;;;;;4.53;1.23;;;;;;;;;;5112735;28;20048;-78
2023/12/29 07:42:18;;;;;;;7.60;1.23;;;;;;;;;;5112195;28;20020;-78
2023/12/29 07:44:44;;;;;;;3.13;0.47;;;;;;;;;;5095900;28;20162;-78
2023/12/29 07:47:11;;;;;;;6.53;0.87;;;;;;;;;;5109754;28;20024;-78
2023/12/29 07:49:42;;;;;;;5.50;1.30;;;;;;;;;;5093144;28;20016;-78
2023/12/29 07:52:08;;;;;;;5.27;0.87;;;;;;;;;;5094854;28;20028;-78
2023/12/29 07:54:58;;;;;;;5.47;1.07;;;;;;;;;;5100558;27;20426;-76
2023/12/29 07:57:24;;;;;;;4.03;0.83;;;;;;;;;;5069061;28;20020;-76
2023/12/29 07:59:50;;;;;;;11.07;0.97;;;;;;;;;;5068019;28;20044;-77
2023/12/29 08:02:23;;;;;;;3.97;1.27;;;;;;;;;;5067381;28;20044;-76
2023/12/29 08:04:50;;;;;;;9.33;1.13;;;;;;;;;;5066137;28;20013;-76
2023/12/29 08:07:16;;;;;;;4.37;1.10;;;;;;;;;;5065256;28;20035;-76
2023/12/29 08:09:42;;;;;;;6.63;0.97;;;;;;;;;;5067754;28;20024;-75
2023/12/29 08:12:10;;;;;;;5.60;1.27;;;;;;;;;;5084088;28;20016;-76
2023/12/29 08:14:36;;;;;;;11.87;1.47;;;;;;;;;;5070164;28;20045;-76
2023/12/29 08:17:03;;;;;;;9.73;1.13;;;;;;;;;;5067245;28;20027;-76
2023/12/29 08:19:29;;;;;;;10.57;1.27;;;;;;;;;;5062365;28;20013;-77
2023/12/29 08:21:58;;;;;;;13.80;1.80;;;;;;;;;;5063863;28;20036;-76
2023/12/29 08:24:24;;;;;;;5.40;1.50;;;;;;;;;;5062372;28;20024;-76
2023/12/29 08:26:50;;;;;;;11.23;1.83;;;;;;;;;;5087373;28;20029;-76
2023/12/29 08:29:20;;;;;;;10.67;2.00;;;;;;;;;;5066531;28;20033;-76
2023/12/29 08:32:05;;;;;;;14.90;1.93;;;;;;;;;;5082909;28;20035;-76
2023/12/29 08:34:31;;;;;;;10.83;1.93;;;;;;;;;;5086388;28;20047;-76
2023/12/29 08:36:59;;;;;;;6.67;1.43;;;;;;;;;;5083192;28;20023;-76
2023/12/29 08:39:27;;;;;;;12.63;1.60;;;;;;;;;;5064887;28;20039;-76
2023/12/29 08:41:53;;;;;;;8.50;1.27;;;;;;;;;;5084575;28;20017;-76
2023/12/29 08:47:08;;;;;;;10.17;2.03;;;;;;;;;;5314377;23;20025;-77
2023/12/29 08:49:37;;;;;;;9.73;2.00;;;;;;;;;;5049171;28;20032;-76
2023/12/29 08:52:03;;;;;;;13.93;1.40;;;;;;;;;;5051363;28;20018;-77
2023/12/29 08:54:29;;;;;;;13.43;1.60;;;;;;;;;;5046248;28;20042;-77
2023/12/29 08:56:55;;;;;;;18.57;2.03;;;;;;;;;;5066324;28;20081;-77
2023/12/29 08:59:23;;;;;;;8.03;1.80;;;;;;;;;;5043102;28;20017;-77
2023/12/29 09:01:49;;;;;;;9.83;1.60;;;;;;;;;;5046970;28;20081;-77
2023/12/29 09:04:18;;;;;;;10.47;1.90;;;;;;;;;;5042565;28;20021;-77
2023/12/29 09:06:46;;;;;;;15.53;1.50;;;;;;;;;;5032296;28;20026;-77
2023/12/29 09:09:13;;;;;;;11.23;1.90;;;;;;;;;;5036733;28;20037;-76
2023/12/29 09:11:46;;;;;;;7.07;1.40;;;;;;;;;;5071803;23;20030;-76
2023/12/29 09:14:14;;;;;;;9.37;2.20;;;;;;;;;;5030976;28;20054;-76
2023/12/29 09:19:19;;;;;;;7.77;1.67;;;;;;;;;;5019542;23;20090;-77
2023/12/29 09:21:55;;;;;;;11.57;1.63;;;;;;;;;;5042126;23;20034;-77
2023/12/29 09:24:31;;;;;;;7.87;1.70;;;;;;;;;;5013659;28;20014;-76
2023/12/29 09:26:57;;;;;;;10.90;1.70;;;;;;;;;;5291623;23;20086;31
2023/12/29 09:29:35;;;;;;;11.57;1.90;;;;;;;;;;4999778;28;19910;-76
2023/12/29 09:34:35;;;;;;;14.20;1.13;;;;;;;;;;5021139;28;20030;-76
2023/12/29 09:37:01;;;;;;;10.93;2.10;;;;;;;;;;4999965;28;20002;-77
2023/12/29 09:39:43;;;;;;;7.67;1.00;;;;;;;;;;5004364;28;20003;-77
2023/12/29 09:42:09;;;;;;;9.37;1.33;;;;;;;;;;5004002;28;20030;-76
2023/12/29 09:44:51;;;;;;;9.70;1.57;;;;;;;;;;5003318;28;20032;-77
2023/12/29 09:47:23;;;;;;;11.05;2.00;;;;;;;;;;5000265;28;20007;-77
2023/12/29 09:49:55;;;;;;;8.77;1.60;;;;;;;;;;5014654;28;20034;-76
2023/12/29 09:52:24;;;;;;;7.82;1.38;;;;;;;;;;5001928;28;20045;-77
2023/12/29 09:54:51;;;;;;;8.37;1.20;;;;;;;;;;5004662;28;20112;-77
2023/12/29 09:57:18;;;;;;;4.43;0.83;;;;;;;;;;5004373;28;20033;-77
2023/12/29 09:59:45;;;;;;;11.37;1.20;;;;;;;;;;5006206;28;20085;-78
2023/12/29 10:02:15;;;;;;;12.70;1.33;;;;;;;;;;5007378;28;20062;-77
2023/12/29 10:04:41;;;;;;;6.50;1.13;;;;;;;;;;5000107;28;20034;-78
2023/12/29 10:07:11;;;;;;;1.93;0.70;;;;;;;;;;5000523;28;20050;-77
2023/12/29 10:09:38;;;;;;;8.27;1.07;;;;;;;;;;5003859;28;20030;-77
2023/12/29 10:12:10;;;;;;;7.97;1.00;;;;;;;;;;5001840;28;20018;-77
2023/12/29 10:14:47;;;;;;;6.85;0.85;;;;;;;;;;5003846;28;20037;-77
2023/12/29 10:17:36;;;;;;;3.13;0.50;;;;;;;;;;5004205;28;20058;-78
2023/12/29 10:20:13;;;;;;;5.20;0.60;;;;;;;;;;4982804;28;20218;-78
2023/12/29 10:22:51;;;;;;;4.10;0.50;;;;;;;;;;5004941;28;20030;-77
2023/12/29 10:25:17;;;;;;;3.53;0.70;;;;;;;;;;5021901;23;20053;-78
2023/12/29 10:27:56;;;;;;;;;;;;;;;;;;;;;
2023/12/29 10:30:23;;;;;;;1.73;0.47;;;;;;;;;;4998728;28;20049;-78
2023/12/29 10:32:52;;;;;;;1.83;0.60;;;;;;;;;;4986278;28;20030;-78
2023/12/29 10:35:19;;;;;;;5.77;1.03;;;;;;;;;;5012296;28;20026;-79
2023/12/29 10:37:50;;;;;;;3.00;0.60;;;;;;;;;;5005120;28;20047;-78
2023/12/29 10:40:20;;;;;;;3.13;0.43;;;;;;;;;;5000405;28;20015;-78
2023/12/29 10:42:53;;;;;;;1.50;0.40;;;;;;;;;;4996799;28;20018;-79
2023/12/29 10:45:19;;;;;;;5.23;0.60;;;;;;;;;;4999988;28;20011;-78
2023/12/29 10:47:45;;;;;;;3.23;0.60;;;;;;;;;;4999267;28;20035;-78
2023/12/29 10:50:11;;;;;;;3.80;0.73;;;;;;;;;;5009400;28;20037;-78
2023/12/29 10:52:38;;;;;;;2.50;0.40;;;;;;;;;;5014744;28;20107;-78
2023/12/29 10:55:08;;;;;;;1.57;0.40;;;;;;;;;;4999056;28;20832;-78
2023/12/29 10:57:40;;;;;;;3.90;0.37;;;;;;;;;;4996079;28;20030;-78
2023/12/29 11:00:07;;;;;;;3.28;0.63;;;;;;;;;;4999781;28;20019;-78
2023/12/29 11:02:34;;;;;;;2.03;0.50;;;;;;;;;;4999757;28;20015;-77
2023/12/29 11:05:11;;;;;;;5.03;1.00;;;;;;;;;;4995066;28;20047;-78
2023/12/29 11:07:50;;;;;;;2.30;0.53;;;;;;;;;;4989231;28;20035;-78
2023/12/29 11:10:17;;;;;;;4.53;0.50;;;;;;;;;;4998794;28;20035;-78
2023/12/29 11:12:45;;;;;;;2.43;0.40;;;;;;;;;;5003162;28;20087;-79
2023/12/29 11:15:15;;;;;;;1.27;0.20;;;;;;;;;;4999119;28;20038;-78
2023/12/29 11:17:49;;;;;;;4.40;0.53;;;;;;;;;;4996690;28;20022;-80
2023/12/29 11:20:22;;;;;;;6.10;0.80;;;;;;;;;;5010211;28;20035;-78
2023/12/29 11:22:48;;;;;;;7.68;0.73;;;;;;;;;;5000321;28;20034;-78
2023/12/29 11:25:15;;;;;;;2.83;0.50;;;;;;;;;;5013744;28;20034;-82
2023/12/29 11:27:44;;;;;;;2.07;0.60;;;;;;;;;;4996995;28;20033;-79
2023/12/29 11:30:15;;;;;;;1.33;0.60;;;;;;;;;;4995668;28;20017;-78
2023/12/29 11:32:50;;;;;;;2.23;0.40;;;;;;;;;;4987514;28;20046;-77
2023/12/29 11:35:22;;;;;;;2.93;0.70;;;;;;;;;;4986817;28;20021;-78
2023/12/29 11:38:03;;;;;;;5.47;0.93;;;;;;;;;;5050091;23;20107;-78
2023/12/29 11:40:39;;;;;;;1.53;0.40;;;;;;;;;;4993517;28;20027;-79
2023/12/29 11:43:07;;;;;;;4.20;0.77;;;;;;;;;;4999680;28;20015;-78
2023/12/29 11:45:35;;;;;;;0.63;0.30;;;;;;;;;;4997133;28;20030;-78
2023/12/29 11:48:05;;;;;;;3.00;0.50;;;;;;;;;;4998472;28;20014;-78
2023/12/29 11:50:40;;;;;;;2.70;0.50;;;;;;;;;;4999369;28;20003;-78
2023/12/29 11:53:06;;;;;;;2.00;0.60;;;;;;;;;;4987569;28;20039;-78
2023/12/29 11:55:39;;;;;;;3.63;0.87;;;;;;;;;;4988706;28;20016;-78
2023/12/29 11:58:05;;;;;;;1.87;0.60;;;;;;;;;;4995626;28;20043;-78
2023/12/29 12:00:42;;;;;;;1.73;0.53;;;;;;;;;;5002423;28;20102;-78
2023/12/29 12:03:23;;;;;;;4.63;0.63;;;;;;;;;;4984054;28;20039;-77
2023/12/29 12:05:50;;;;;;;2.67;0.60;;;;;;;;;;4989194;28;20035;-78
2023/12/29 12:08:39;;;;;;;5.67;0.53;;;;;;;;;;4991374;28;20007;-78
2023/12/29 12:11:24;;;;;;;1.47;0.30;;;;;;;;;;5020107;28;20042;-78
2023/12/29 12:13:50;;;;;;;2.27;0.60;;;;;;;;;;5059509;23;20151;-78
2023/12/29 12:16:35;;;;;;;4.10;0.30;;;;;;;;;;4987754;28;20027;-78
2023/12/29 12:19:01;;;;;;;2.77;0.67;;;;;;;;;;4977861;28;20042;-78
2023/12/29 12:21:32;;;;;;;2.63;0.70;;;;;;;;;;4992253;28;20038;-78
2023/12/29 12:23:59;;;;;;;2.60;0.33;;;;;;;;;;4993872;28;20026;-77
2023/12/29 12:26:30;;;;;;;3.43;1.13;;;;;;;;;;4972260;28;20026;-78
2023/12/29 12:28:57;;;;;;;2.33;0.43;;;;;;;;;;4979033;28;20058;-76
2023/12/29 12:31:23;;;;;;;2.07;0.40;;;;;;;;;;4976936;28;20019;-77
2023/12/29 12:33:56;;;;;;;1.17;0.30;;;;;;;;;;4990106;28;20043;-78
2023/12/29 12:36:21;;;;;;;;;;;;;;;;;;4993752;28;20035;-78
2023/12/29 12:38:54;;;;;;;2.30;0.40;;;;;;;;;;4975782;28;19898;-77
2023/12/29 12:41:20;;;;;;;;;;;;;;;;;;4977878;28;20027;-77
2023/12/29 12:43:53;;;;;;;2.83;0.40;;;;;;;;;;4978754;28;20130;-78
2023/12/29 12:46:25;;;;;;;4.00;0.30;;;;;;;;;;4981122;28;20038;-78
2023/12/29 12:48:51;;;;;;;3.00;0.57;;;;;;;;;;4979232;28;20023;-77
2023/12/29 12:51:19;;;;;;;1.97;0.40;;;;;;;;;;4979461;28;20023;-78
2023/12/29 12:53:47;;;;;;;1.10;0.23;;;;;;;;;;4979411;28;20027;-77
2023/12/29 12:56:13;;;;;;;1.93;0.53;;;;;;;;;;4982708;28;20007;-77
2023/12/29 12:58:43;;;;;;;0.90;0.30;;;;;;;;;;4979165;28;20046;-77
2023/12/29 13:01:20;;;;;;;1.47;0.40;;;;;;;;;;4994347;28;20099;-77
2023/12/29 13:03:56;;;;;;;3.20;1.00;;;;;;;;;;4990310;28;20087;-77
2023/12/29 13:06:22;;;;;;;1.07;0.20;;;;;;;;;;4974846;28;20067;-77
2023/12/29 13:08:50;;;;;;;2.13;0.73;;;;;;;;;;4977258;28;20029;-77
2023/12/29 13:11:24;;;;;;;0.23;0.20;;;;;;;;;;4993792;28;20011;-76
2023/12/29 13:13:56;;;;;;;1.00;0.17;;;;;;;;;;4992283;28;20038;-77
2023/12/29 13:16:29;;;;;;;1.27;0.20;;;;;;;;;;4975928;28;20027;-77
2023/12/29 13:18:55;;;;;;;2.90;0.30;;;;;;;;;;4974054;28;20026;-77
2023/12/29 13:21:30;;;;;;;1.33;0.40;;;;;;;;;;4993013;28;20058;-77
2023/12/29 13:26:52;;;;;;;3.33;0.45;;;;;;;;;;4991779;28;20084;-77
2023/12/29 13:29:20;;;;;;;3.37;0.47;;;;;;;;;;4973649;28;20030;-77
2023/12/29 13:31:48;;;;;;;0.60;0.30;;;;;;;;;;4975604;28;20034;-77
2023/12/29 13:34:20;;;;;;;1.77;0.20;;;;;;;;;;4979111;28;20027;-77
2023/12/29 13:36:55;;;;;;;1.20;0.40;;;;;;;;;;4995976;28;20042;-78
2023/12/29 13:39:29;;;;;;;0.30;0.30;;;;;;;;;;4978415;28;20287;-77
2023/12/29 13:41:55;;;;;;;1.43;0.40;;;;;;;;;;4973267;28;20023;-77
2023/12/29 13:44:22;;;;;;;0.83;0.20;;;;;;;;;;5016738;23;20098;-77
2023/12/29 13:46:51;;;;;;;1.27;0.33;;;;;;;;;;5000372;28;20011;-78
2023/12/29 13:49:17;;;;;;;1.20;0.30;;;;;;;;;;5001953;28;20010;-77
2023/12/29 13:51:44;;;;;;;1.40;0.40;;;;;;;;;;4995383;28;20030;-77
2023/12/29 13:54:10;;;;;;;0.63;0.30;;;;;;;;;;4995425;28;20085;-77
2023/12/29 13:56:39;;;;;;;1.13;0.20;;;;;;;;;;5001158;28;20059;-77
2023/12/29 13:59:07;;;;;;;2.07;0.40;;;;;;;;;;5001035;28;20054;-77
2023/12/29 14:01:39;;;;;;;1.77;0.40;;;;;;;;;;4998616;28;20046;-77
2023/12/29 14:04:08;;;;;;;2.43;0.30;;;;;;;;;;5002325;28;20026;-77
2023/12/29 14:06:52;;;;;;;2.97;0.27;;;;;;;;;;5001930;28;20015;-77
2023/12/29 14:09:18;;;;;;;1.47;0.50;;;;;;;;;;4996686;28;20006;-76
2023/12/29 14:11:45;;;;;;;0.57;0.40;;;;;;;;;;5001841;28;20030;-77
2023/12/29 14:14:13;;;;;;;3.33;0.40;;;;;;;;;;5070843;23;21106;-77
2023/12/29 14:16:43;;;;;;;1.07;0.30;;;;;;;;;;5010899;28;20014;-77
2023/12/29 14:19:09;;;;;;;1.00;0.27;;;;;;;;;;5002316;28;20021;-77
2023/12/29 14:21:37;;;;;;;0.87;0.33;;;;;;;;;;5003263;28;20002;-77
2023/12/29 14:24:11;;;;;;;2.73;0.60;;;;;;;;;;5011508;28;20033;-77
2023/12/29 14:26:37;;;;;;;1.17;0.73;;;;;;;;;;5003510;28;20021;-77
2023/12/29 14:29:13;;;;;;;4.07;0.60;;;;;;;;;;5000335;28;20022;-76
2023/12/29 14:31:42;;;;;;;2.77;0.67;;;;;;;;;;5001512;28;20045;-77
2023/12/29 14:34:09;;;;;;;1.50;0.50;;;;;;;;;;5015289;28;20042;-77
2023/12/29 14:36:36;;;;;;;4.10;0.50;;;;;;;;;;4994144;28;20018;-77
2023/12/29 14:39:02;;;;;;;1.20;0.90;;;;;;;;;;5017441;28;20044;-77
2023/12/29 14:41:29;;;;;;;7.37;3.13;;;;;;;;;;4997845;28;20062;-77
2023/12/29 14:43:55;;;;;;;4.03;1.10;;;;;;;;;;4994077;28;20021;-77
2023/12/29 14:46:21;;;;;;;3.13;0.77;;;;;;;;;;4997383;28;20018;-77
2023/12/29 14:48:47;;;;;;;2.83;1.30;;;;;;;;;;4996438;28;20018;-77
2023/12/29 14:51:14;;;;;;;4.50;2.30;;;;;;;;;;4997792;28;20034;-77
2023/12/29 14:53:40;;;;;;;6.10;1.00;;;;;;;;;;4997402;28;20030;-77
2023/12/29 14:56:11;;;;;;;5.77;0.97;;;;;;;;;;4994797;28;20125;-77
2023/12/29 14:58:40;;;;;;;2.00;0.77;;;;;;;;;;4993555;28;20084;-77
2023/12/29 15:01:09;;;;;;;1.97;0.30;;;;;;;;;;5012729;28;20018;-77
2023/12/29 15:03:36;;;;;;;4.00;1.77;;;;;;;;;;4994702;28;20034;-78
2023/12/29 15:06:02;;;;;;;1.30;0.50;;;;;;;;;;5013113;28;20030;-77
2023/12/29 15:08:34;;;;;;;1.73;0.53;;;;;;;;;;4992453;28;20023;-77
2023/12/29 15:11:03;;;;;;;3.43;0.80;;;;;;;;;;4997625;28;20022;-77
2023/12/29 15:13:35;;;;;;;3.17;0.50;;;;;;;;;;4996783;28;20041;-77
2023/12/29 15:16:02;;;;;;;1.73;0.20;;;;;;;;;;4992233;28;20019;-77